sensor_id;sensor_type;location;lat;lon;timestamp;pressure;altitude;pressure_sealevel;temperature;humidity
10079;BME280;5078;42.544;22.966;2023-05-27T00:01:16;93876.78;;;14.58;100.00
10079;BME280;5078;42.544;22.966;2023-05-27T00:03:45;93867.25;;;14.35;100.00
10079;BME280;5078;42.544;22.966;2023-05-27T00:06:12;93868.66;;;14.31;100.00
10079;BME280;5078;42.544;22.966;2023-05-27T00:08:39;93873.59;;;13.99;100.00
10079;BME280;5078;42.544;22.966;2023-05-27T00:11:06;93879.56;;;14.01;100.00
10079;BME280;5078;42.544;22.966;2023-05-27T00:13:34;93877.69;;;13.95;100.00
10079;BME280;5078;42.544;22.966;2023-05-27T00:16:00;93884.13;;;13.79;100.00
10079;BME280;5078;42.544;22.966;2023-05-27T00:18:27;93868.13;;;13.73;100.00
10079;BME280;5078;42.544;22.966;2023-05-27T00:20:54;93876.84;;;13.88;100.00
10079;BME280;5078;42.544;22.966;2023-05-27T00:23:21;93871.53;;;13.95;100.00
10079;BME280;5078;42.544;22.966;2023-05-27T00:25:47;93873.59;;;13.93;100.00
10079;BME280;5078;42.544;22.966;2023-05-27T00:28:14;93868.19;;;13.86;100.00
10079;BME280;5078;42.544;22.966;2023-05-27T00:30:42;93871.97;;;13.98;100.00
10079;BME280;5078;42.544;22.966;2023-05-27T00:33:09;93869.25;;;13.92;100.00
10079;BME280;5078;42.544;22.966;2023-05-27T00:35:35;93833.88;;;13.42;100.00
10079;BME280;5078;42.544;22.966;2023-05-27T00:38:04;93865.03;;;13.48;100.00
10079;BME280;5078;42.544;22.966;2023-05-27T00:40:31;93872.72;;;13.57;100.00
10079;BME280;5078;42.544;22.966;2023-05-27T00:43:00;93889.94;;;13.33;100.00
10079;BME280;5078;42.544;22.966;2023-05-27T00:45:27;93866.38;;;13.58;100.00
10079;BME280;5078;42.544;22.966;2023-05-27T00:47:55;93865.50;;;13.51;100.00
10079;BME280;5078;42.544;22.966;2023-05-27T00:50:22;93860.72;;;13.68;100.00
10079;BME280;5078;42.544;22.966;2023-05-27T00:52:50;93861.25;;;13.92;100.00
10079;BME280;5078;42.544;22.966;2023-05-27T00:55:17;93850.47;;;14.07;100.00
10079;BME280;5078;42.544;22.966;2023-05-27T00:57:44;93839.84;;;14.13;100.00
10079;BME280;5078;42.544;22.966;2023-05-27T01:00:12;93841.34;;;14.29;100.00
10079;BME280;5078;42.544;22.966;2023-05-27T01:02:39;93838.91;;;14.34;100.00
10079;BME280;5078;42.544;22.966;2023-05-27T01:05:10;93837.09;;;14.41;100.00
10079;BME280;5078;42.544;22.966;2023-05-27T01:07:49;93834.81;;;14.45;100.00
10079;BME280;5078;42.544;22.966;2023-05-27T01:10:23;93832.44;;;14.57;100.00
10079;BME280;5078;42.544;22.966;2023-05-27T01:12:59;93833.69;;;14.61;100.00
10079;BME280;5078;42.544;22.966;2023-05-27T01:15:27;93843.97;;;14.64;100.00
10079;BME280;5078;42.544;22.966;2023-05-27T01:17:56;93859.94;;;14.57;100.00
10079;BME280;5078;42.544;22.966;2023-05-27T01:20:25;93854.94;;;14.48;100.00
10079;BME280;5078;42.544;22.966;2023-05-27T01:22:54;93863.28;;;14.66;100.00
10079;BME280;5078;42.544;22.966;2023-05-27T01:25:23;93865.13;;;14.72;100.00
10079;BME280;5078;42.544;22.966;2023-05-27T01:27:50;93863.06;;;14.74;100.00
10079;BME280;5078;42.544;22.966;2023-05-27T01:30:18;93865.16;;;14.79;100.00
10079;BME280;5078;42.544;22.966;2023-05-27T01:32:48;93858.63;;;14.88;100.00
10079;BME280;5078;42.544;22.966;2023-05-27T01:35:23;93858.81;;;15.00;100.00
10079;BME280;5078;42.544;22.966;2023-05-27T01:37:53;93862.53;;;15.05;100.00
10079;BME280;5078;42.544;22.966;2023-05-27T01:40:21;93840.28;;;14.72;100.00
10079;BME280;5078;42.544;22.966;2023-05-27T01:42:48;93844.38;;;14.67;100.00
10079;BME280;5078;42.544;22.966;2023-05-27T01:45:16;93847.25;;;14.66;100.00
10079;BME280;5078;42.544;22.966;2023-05-27T01:47:43;93851.28;;;14.49;100.00
10079;BME280;5078;42.544;22.966;2023-05-27T01:50:10;93845.94;;;14.49;100.00
10079;BME280;5078;42.544;22.966;2023-05-27T01:52:37;93843.06;;;14.43;100.00
10079;BME280;5078;42.544;22.966;2023-05-27T01:55:06;93845.66;;;14.30;100.00
10079;BME280;5078;42.544;22.966;2023-05-27T01:57:33;93835.78;;;14.24;100.00
10079;BME280;5078;42.544;22.966;2023-05-27T01:59:59;93844.19;;;14.21;100.00
10079;BME280;5078;42.544;22.966;2023-05-27T02:02:26;93839.72;;;14.28;100.00
10079;BME280;5078;42.544;22.966;2023-05-27T02:04:53;93836.81;;;14.23;100.00
10079;BME280;5078;42.544;22.966;2023-05-27T02:07:20;93834.16;;;14.30;100.00
10079;BME280;5078;42.544;22.966;2023-05-27T02:09:46;93838.22;;;14.19;100.00
10079;BME280;5078;42.544;22.966;2023-05-27T02:12:14;93832.25;;;14.17;100.00
10079;BME280;5078;42.544;22.966;2023-05-27T02:14:41;93837.19;;;14.20;100.00
10079;BME280;5078;42.544;22.966;2023-05-27T02:17:10;93846.84;;;14.21;100.00
10079;BME280;5078;42.544;22.966;2023-05-27T02:19:37;93834.13;;;14.16;100.00
10079;BME280;5078;42.544;22.966;2023-05-27T02:22:04;93844.19;;;14.28;100.00
10079;BME280;5078;42.544;22.966;2023-05-27T02:24:30;93837.81;;;14.22;100.00
10079;BME280;5078;42.544;22.966;2023-05-27T02:26:57;93840.47;;;14.15;100.00
10079;BME280;5078;42.544;22.966;2023-05-27T02:29:26;93838.28;;;14.32;100.00
10079;BME280;5078;42.544;22.966;2023-05-27T02:31:52;93834.38;;;14.35;100.00
10079;BME280;5078;42.544;22.966;2023-05-27T02:34:19;93842.66;;;14.46;100.00
10079;BME280;5078;42.544;22.966;2023-05-27T02:36:46;93848.25;;;14.58;100.00
10079;BME280;5078;42.544;22.966;2023-05-27T02:39:12;93840.66;;;14.62;100.00
10079;BME280;5078;42.544;22.966;2023-05-27T02:41:39;93836.16;;;14.62;100.00
10079;BME280;5078;42.544;22.966;2023-05-27T02:44:06;93848.03;;;14.60;100.00
10079;BME280;5078;42.544;22.966;2023-05-27T02:46:34;93845.72;;;14.50;100.00
10079;BME280;5078;42.544;22.966;2023-05-27T02:49:01;93844.69;;;14.44;100.00
10079;BME280;5078;42.544;22.966;2023-05-27T02:51:28;93837.31;;;14.05;100.00
10079;BME280;5078;42.544;22.966;2023-05-27T02:53:55;93836.28;;;13.99;100.00
10079;BME280;5078;42.544;22.966;2023-05-27T02:56:22;93844.84;;;13.88;100.00
10079;BME280;5078;42.544;22.966;2023-05-27T02:58:51;93848.38;;;13.95;100.00
10079;BME280;5078;42.544;22.966;2023-05-27T03:01:18;93854.72;;;13.94;100.00
10079;BME280;5078;42.544;22.966;2023-05-27T03:03:46;93846.72;;;13.94;100.00
10079;BME280;5078;42.544;22.966;2023-05-27T03:06:12;93848.84;;;14.06;100.00
10079;BME280;5078;42.544;22.966;2023-05-27T03:08:39;93848.59;;;14.00;100.00
10079;BME280;5078;42.544;22.966;2023-05-27T03:11:06;93857.59;;;13.93;100.00
10079;BME280;5078;42.544;22.966;2023-05-27T03:13:33;93861.94;;;14.00;100.00
10079;BME280;5078;42.544;22.966;2023-05-27T03:16:00;93854.41;;;14.11;100.00
10079;BME280;5078;42.544;22.966;2023-05-27T03:18:27;93860.50;;;14.05;100.00
10079;BME280;5078;42.544;22.966;2023-05-27T03:20:55;93856.22;;;14.10;100.00
10079;BME280;5078;42.544;22.966;2023-05-27T03:23:22;93853.81;;;14.15;100.00
10079;BME280;5078;42.544;22.966;2023-05-27T03:25:48;93848.44;;;14.09;100.00
10079;BME280;5078;42.544;22.966;2023-05-27T03:28:15;93854.31;;;13.97;100.00
10079;BME280;5078;42.544;22.966;2023-05-27T03:30:42;93854.00;;;14.14;100.00
10079;BME280;5078;42.544;22.966;2023-05-27T03:33:09;93858.69;;;14.12;100.00
10079;BME280;5078;42.544;22.966;2023-05-27T03:35:36;93859.50;;;14.12;100.00
10079;BME280;5078;42.544;22.966;2023-05-27T03:38:04;93860.72;;;14.03;100.00
10079;BME280;5078;42.544;22.966;2023-05-27T03:40:31;93866.16;;;14.23;100.00
10079;BME280;5078;42.544;22.966;2023-05-27T03:42:58;93860.19;;;14.21;100.00
10079;BME280;5078;42.544;22.966;2023-05-27T03:45:24;93866.22;;;14.01;100.00
10079;BME280;5078;42.544;22.966;2023-05-27T03:47:52;93860.81;;;14.23;100.00
10079;BME280;5078;42.544;22.966;2023-05-27T03:50:18;93855.50;;;14.23;100.00
10079;BME280;5078;42.544;22.966;2023-05-27T03:52:45;93852.00;;;14.29;100.00
10079;BME280;5078;42.544;22.966;2023-05-27T03:55:13;93857.09;;;14.59;100.00
10079;BME280;5078;42.544;22.966;2023-05-27T03:57:42;93846.81;;;14.62;100.00
10079;BME280;5078;42.544;22.966;2023-05-27T04:00:10;93849.72;;;14.74;100.00
10079;BME280;5078;42.544;22.966;2023-05-27T04:02:38;93856.75;;;14.88;100.00
10079;BME280;5078;42.544;22.966;2023-05-27T04:05:05;93856.78;;;15.02;100.00
10079;BME280;5078;42.544;22.966;2023-05-27T04:07:31;93855.34;;;15.06;100.00
10079;BME280;5078;42.544;22.966;2023-05-27T04:09:58;93858.44;;;15.29;100.00
10079;BME280;5078;42.544;22.966;2023-05-27T04:12:26;93850.00;;;15.19;100.00
10079;BME280;5078;42.544;22.966;2023-05-27T04:14:53;93852.91;;;15.24;100.00
10079;BME280;5078;42.544;22.966;2023-05-27T04:17:21;93851.88;;;15.39;100.00
10079;BME280;5078;42.544;22.966;2023-05-27T04:19:48;93848.19;;;15.26;100.00
10079;BME280;5078;42.544;22.966;2023-05-27T04:22:15;93854.34;;;15.20;100.00
10079;BME280;5078;42.544;22.966;2023-05-27T04:24:42;93856.81;;;15.35;100.00
10079;BME280;5078;42.544;22.966;2023-05-27T04:27:09;93856.41;;;15.58;100.00
10079;BME280;5078;42.544;22.966;2023-05-27T04:29:39;93843.22;;;15.90;100.00
10079;BME280;5078;42.544;22.966;2023-05-27T04:32:07;93860.09;;;15.90;100.00
10079;BME280;5078;42.544;22.966;2023-05-27T04:34:35;93867.47;;;16.08;100.00
10079;BME280;5078;42.544;22.966;2023-05-27T04:37:02;93873.41;;;16.24;100.00
10079;BME280;5078;42.544;22.966;2023-05-27T04:39:29;93862.31;;;16.13;100.00
10079;BME280;5078;42.544;22.966;2023-05-27T04:41:56;93869.28;;;16.28;100.00
10079;BME280;5078;42.544;22.966;2023-05-27T04:44:23;93864.13;;;16.33;100.00
10079;BME280;5078;42.544;22.966;2023-05-27T04:46:53;93864.78;;;16.67;100.00
10079;BME280;5078;42.544;22.966;2023-05-27T04:49:20;93874.13;;;16.57;100.00
10079;BME280;5078;42.544;22.966;2023-05-27T04:51:47;93875.38;;;16.48;100.00
10079;BME280;5078;42.544;22.966;2023-05-27T04:54:14;93875.72;;;15.87;100.00
10079;BME280;5078;42.544;22.966;2023-05-27T04:56:40;93876.97;;;15.91;100.00
10079;BME280;5078;42.544;22.966;2023-05-27T04:59:08;93873.25;;;15.99;100.00
10079;BME280;5078;42.544;22.966;2023-05-27T05:01:41;93875.69;;;16.07;100.00
10079;BME280;5078;42.544;22.966;2023-05-27T05:04:36;93877.31;;;16.21;100.00
10079;BME280;5078;42.544;22.966;2023-05-27T05:07:03;93873.31;;;16.50;100.00
10079;BME280;5078;42.544;22.966;2023-05-27T05:09:30;93876.59;;;16.52;100.00
10079;BME280;5078;42.544;22.966;2023-05-27T05:11:56;93870.09;;;16.35;100.00
10079;BME280;5078;42.544;22.966;2023-05-27T05:14:23;93871.91;;;16.41;100.00
10079;BME280;5078;42.544;22.966;2023-05-27T05:16:50;93880.41;;;16.76;100.00
10079;BME280;5078;42.544;22.966;2023-05-27T05:19:17;93882.44;;;16.88;100.00
10079;BME280;5078;42.544;22.966;2023-05-27T05:21:45;93874.88;;;16.78;100.00
10079;BME280;5078;42.544;22.966;2023-05-27T05:24:11;93879.97;;;16.86;100.00
10079;BME280;5078;42.544;22.966;2023-05-27T05:26:38;93886.28;;;17.05;100.00
10079;BME280;5078;42.544;22.966;2023-05-27T05:29:05;93877.06;;;17.58;100.00
10079;BME280;5078;42.544;22.966;2023-05-27T05:31:32;93884.50;;;17.56;100.00
10079;BME280;5078;42.544;22.966;2023-05-27T05:33:59;93892.66;;;18.18;100.00
10079;BME280;5078;42.544;22.966;2023-05-27T05:36:26;93894.97;;;18.51;100.00
10079;BME280;5078;42.544;22.966;2023-05-27T05:38:54;93896.63;;;18.70;100.00
10079;BME280;5078;42.544;22.966;2023-05-27T05:41:20;93894.09;;;19.66;97.29
10079;BME280;5078;42.544;22.966;2023-05-27T05:43:47;93897.34;;;20.22;90.59
10079;BME280;5078;42.544;22.966;2023-05-27T05:46:14;93890.28;;;19.74;89.54
10079;BME280;5078;42.544;22.966;2023-05-27T05:48:40;93900.38;;;20.25;89.48
10079;BME280;5078;42.544;22.966;2023-05-27T05:51:07;93901.75;;;20.52;85.38
10079;BME280;5078;42.544;22.966;2023-05-27T05:53:34;93894.28;;;21.06;81.88
10079;BME280;5078;42.544;22.966;2023-05-27T05:56:02;93885.28;;;21.00;80.08
10079;BME280;5078;42.544;22.966;2023-05-27T05:58:29;93898.72;;;19.89;83.85
10079;BME280;5078;42.544;22.966;2023-05-27T06:00:55;93885.13;;;20.66;82.71
10079;BME280;5078;42.544;22.966;2023-05-27T06:03:22;93892.28;;;20.14;81.80
10079;BME280;5078;42.544;22.966;2023-05-27T06:05:49;93898.13;;;19.45;87.76
10079;BME280;5078;42.544;22.966;2023-05-27T06:08:16;93890.16;;;19.38;92.75
10079;BME280;5078;42.544;22.966;2023-05-27T06:10:42;93887.69;;;19.79;88.32
10079;BME280;5078;42.544;22.966;2023-05-27T06:13:10;93899.28;;;19.68;90.54
10079;BME280;5078;42.544;22.966;2023-05-27T06:15:37;93894.50;;;20.64;84.14
10079;BME280;5078;42.544;22.966;2023-05-27T06:18:04;93890.28;;;20.68;82.22
10079;BME280;5078;42.544;22.966;2023-05-27T06:20:31;93895.59;;;20.39;83.99
10079;BME280;5078;42.544;22.966;2023-05-27T06:22:58;93892.75;;;20.34;83.70
10079;BME280;5078;42.544;22.966;2023-05-27T06:25:24;93905.63;;;19.85;87.47
10079;BME280;5078;42.544;22.966;2023-05-27T06:27:51;93910.44;;;20.07;83.90
10079;BME280;5078;42.544;22.966;2023-05-27T06:30:19;93903.78;;;20.56;81.60
10079;BME280;5078;42.544;22.966;2023-05-27T06:32:46;93902.59;;;20.76;79.16
10079;BME280;5078;42.544;22.966;2023-05-27T06:35:13;93895.25;;;21.28;77.56
10079;BME280;5078;42.544;22.966;2023-05-27T06:37:39;93900.53;;;21.35;73.66
10079;BME280;5078;42.544;22.966;2023-05-27T06:40:07;93886.88;;;21.13;73.99
10079;BME280;5078;42.544;22.966;2023-05-27T06:42:34;93903.16;;;20.89;75.62
10079;BME280;5078;42.544;22.966;2023-05-27T06:45:01;93911.84;;;20.68;78.25
10079;BME280;5078;42.544;22.966;2023-05-27T06:47:29;93911.63;;;20.11;80.04
10079;BME280;5078;42.544;22.966;2023-05-27T06:49:56;93908.09;;;19.98;79.89
10079;BME280;5078;42.544;22.966;2023-05-27T06:52:23;93910.31;;;20.01;81.14
10079;BME280;5078;42.544;22.966;2023-05-27T06:54:50;93906.22;;;19.87;79.01
10079;BME280;5078;42.544;22.966;2023-05-27T06:57:16;93913.94;;;20.19;77.83
10079;BME280;5078;42.544;22.966;2023-05-27T06:59:43;93916.53;;;20.14;78.93
10079;BME280;5078;42.544;22.966;2023-05-27T07:02:10;93910.44;;;20.18;79.63
10079;BME280;5078;42.544;22.966;2023-05-27T07:04:38;93916.75;;;20.24;77.47
10079;BME280;5078;42.544;22.966;2023-05-27T07:07:05;93914.72;;;19.84;82.51
10079;BME280;5078;42.544;22.966;2023-05-27T07:09:32;93913.84;;;20.25;80.09
10079;BME280;5078;42.544;22.966;2023-05-27T07:11:59;93891.38;;;20.20;78.40
10079;BME280;5078;42.544;22.966;2023-05-27T07:14:26;93915.13;;;20.23;76.40
10079;BME280;5078;42.544;22.966;2023-05-27T07:16:52;93923.78;;;20.13;76.20
10079;BME280;5078;42.544;22.966;2023-05-27T07:19:19;93923.75;;;20.01;75.25
10079;BME280;5078;42.544;22.966;2023-05-27T07:21:48;93916.06;;;20.05;77.21
10079;BME280;5078;42.544;22.966;2023-05-27T07:24:14;93914.53;;;20.21;78.35
10079;BME280;5078;42.544;22.966;2023-05-27T07:26:41;93904.97;;;20.60;76.77
10079;BME280;5078;42.544;22.966;2023-05-27T07:29:08;93916.66;;;20.19;77.14
10079;BME280;5078;42.544;22.966;2023-05-27T07:31:36;93908.44;;;19.90;77.84
10079;BME280;5078;42.544;22.966;2023-05-27T07:34:02;93905.38;;;19.75;80.23
10079;BME280;5078;42.544;22.966;2023-05-27T07:36:30;93898.88;;;19.52;82.94
10079;BME280;5078;42.544;22.966;2023-05-27T07:38:58;93906.59;;;19.60;82.76
10079;BME280;5078;42.544;22.966;2023-05-27T07:41:24;93906.72;;;19.24;85.28
10079;BME280;5078;42.544;22.966;2023-05-27T07:43:51;93911.28;;;19.65;85.01
10079;BME280;5078;42.544;22.966;2023-05-27T07:46:18;93909.63;;;19.22;81.86
10079;BME280;5078;42.544;22.966;2023-05-27T07:48:45;93908.91;;;19.15;83.11
10079;BME280;5078;42.544;22.966;2023-05-27T07:51:11;93912.34;;;19.34;82.33
10079;BME280;5078;42.544;22.966;2023-05-27T07:53:38;93900.00;;;19.14;82.55
10079;BME280;5078;42.544;22.966;2023-05-27T07:56:06;93897.38;;;18.78;82.87
10079;BME280;5078;42.544;22.966;2023-05-27T07:58:33;93883.72;;;18.61;82.11
10079;BME280;5078;42.544;22.966;2023-05-27T08:01:00;93901.84;;;18.84;83.18
10079;BME280;5078;42.544;22.966;2023-05-27T08:03:26;93906.97;;;18.67;82.29
10079;BME280;5078;42.544;22.966;2023-05-27T08:05:53;93895.09;;;18.74;82.45
10079;BME280;5078;42.544;22.966;2023-05-27T08:08:20;93909.16;;;18.77;82.61
10079;BME280;5078;42.544;22.966;2023-05-27T08:10:46;93911.56;;;18.85;82.08
10079;BME280;5078;42.544;22.966;2023-05-27T08:13:15;93903.41;;;18.91;80.39
10079;BME280;5078;42.544;22.966;2023-05-27T08:15:41;93906.91;;;18.92;80.62
10079;BME280;5078;42.544;22.966;2023-05-27T08:18:08;93909.75;;;18.79;81.24
10079;BME280;5078;42.544;22.966;2023-05-27T08:20:35;93914.38;;;18.71;81.62
10079;BME280;5078;42.544;22.966;2023-05-27T08:23:01;93915.94;;;18.61;82.34
10079;BME280;5078;42.544;22.966;2023-05-27T08:25:28;93913.41;;;18.66;84.37
10079;BME280;5078;42.544;22.966;2023-05-27T08:27:56;93920.63;;;18.47;81.69
10079;BME280;5078;42.544;22.966;2023-05-27T08:30:28;93916.75;;;18.43;81.87
10079;BME280;5078;42.544;22.966;2023-05-27T08:32:55;93907.75;;;18.37;80.28
10079;BME280;5078;42.544;22.966;2023-05-27T08:35:22;93915.84;;;18.49;82.22
10079;BME280;5078;42.544;22.966;2023-05-27T08:37:48;93913.78;;;18.51;81.74
10079;BME280;5078;42.544;22.966;2023-05-27T08:40:17;93920.78;;;18.52;79.77
10079;BME280;5078;42.544;22.966;2023-05-27T08:42:46;93915.47;;;18.64;80.39
10079;BME280;5078;42.544;22.966;2023-05-27T08:45:13;93914.13;;;18.80;80.44
10079;BME280;5078;42.544;22.966;2023-05-27T08:47:41;93912.91;;;18.75;78.35
10079;BME280;5078;42.544;22.966;2023-05-27T08:50:09;93915.94;;;18.79;77.17
10079;BME280;5078;42.544;22.966;2023-05-27T08:52:39;93903.19;;;18.56;77.63
10079;BME280;5078;42.544;22.966;2023-05-27T08:55:10;93915.88;;;18.86;77.96
10079;BME280;5078;42.544;22.966;2023-05-27T08:57:43;93915.13;;;18.97;76.59
10079;BME280;5078;42.544;22.966;2023-05-27T09:00:11;93916.03;;;18.72;76.24
10079;BME280;5078;42.544;22.966;2023-05-27T09:02:41;93923.91;;;19.04;76.76
10079;BME280;5078;42.544;22.966;2023-05-27T09:05:08;93922.22;;;19.22;75.88
10079;BME280;5078;42.544;22.966;2023-05-27T09:07:35;93916.28;;;19.50;77.65
10079;BME280;5078;42.544;22.966;2023-05-27T09:10:04;93906.41;;;19.74;73.52
10079;BME280;5078;42.544;22.966;2023-05-27T09:12:31;93910.88;;;19.80;72.04
10079;BME280;5078;42.544;22.966;2023-05-27T09:14:58;93909.03;;;20.04;71.73
10079;BME280;5078;42.544;22.966;2023-05-27T09:17:25;93908.91;;;19.87;71.56
10079;BME280;5078;42.544;22.966;2023-05-27T09:19:54;93913.13;;;20.18;70.96
10079;BME280;5078;42.544;22.966;2023-05-27T09:22:21;93903.41;;;20.06;69.57
10079;BME280;5078;42.544;22.966;2023-05-27T09:24:49;93909.28;;;20.02;70.34
10079;BME280;5078;42.544;22.966;2023-05-27T09:27:19;93912.56;;;20.40;69.64
10079;BME280;5078;42.544;22.966;2023-05-27T09:29:45;93896.72;;;20.43;69.98
10079;BME280;5078;42.544;22.966;2023-05-27T09:32:12;93901.94;;;20.57;67.78
10079;BME280;5078;42.544;22.966;2023-05-27T09:34:39;93882.34;;;20.26;67.26
10079;BME280;5078;42.544;22.966;2023-05-27T09:37:13;93893.34;;;20.48;67.06
10079;BME280;5078;42.544;22.966;2023-05-27T09:39:40;93891.13;;;20.21;68.70
10079;BME280;5078;42.544;22.966;2023-05-27T09:42:07;93896.88;;;20.25;69.34
10079;BME280;5078;42.544;22.966;2023-05-27T09:44:35;93892.63;;;20.29;68.72
10079;BME280;5078;42.544;22.966;2023-05-27T09:47:07;93893.34;;;20.36;68.22
10079;BME280;5078;42.544;22.966;2023-05-27T09:49:37;93898.97;;;19.88;68.66
10079;BME280;5078;42.544;22.966;2023-05-27T09:52:05;93898.31;;;19.62;70.73
10079;BME280;5078;42.544;22.966;2023-05-27T09:54:34;93901.72;;;19.39;70.46
10079;BME280;5078;42.544;22.966;2023-05-27T09:57:03;93905.41;;;19.45;72.02
10079;BME280;5078;42.544;22.966;2023-05-27T09:59:32;93902.56;;;19.39;72.05
10079;BME280;5078;42.544;22.966;2023-05-27T10:02:00;93899.66;;;19.83;73.77
10079;BME280;5078;42.544;22.966;2023-05-27T10:04:28;93902.16;;;19.66;70.31
10079;BME280;5078;42.544;22.966;2023-05-27T10:06:56;93898.59;;;19.72;70.38
10079;BME280;5078;42.544;22.966;2023-05-27T10:09:23;93888.78;;;20.01;71.30
10079;BME280;5078;42.544;22.966;2023-05-27T10:11:52;93874.63;;;20.06;68.69
10079;BME280;5078;42.544;22.966;2023-05-27T10:14:20;93886.41;;;19.81;69.51
10079;BME280;5078;42.544;22.966;2023-05-27T10:16:51;93873.22;;;19.80;70.37
10079;BME280;5078;42.544;22.966;2023-05-27T10:19:20;93875.31;;;20.01;70.58
10079;BME280;5078;42.544;22.966;2023-05-27T10:21:46;93868.31;;;20.00;68.69
10079;BME280;5078;42.544;22.966;2023-05-27T10:24:13;93863.97;;;19.88;69.96
10079;BME280;5078;42.544;22.966;2023-05-27T10:26:41;93867.13;;;19.96;69.68
10079;BME280;5078;42.544;22.966;2023-05-27T10:29:10;93873.47;;;19.90;69.29
10079;BME280;5078;42.544;22.966;2023-05-27T10:31:44;93865.13;;;19.92;68.58
10079;BME280;5078;42.544;22.966;2023-05-27T10:34:11;93859.16;;;20.01;69.30
10079;BME280;5078;42.544;22.966;2023-05-27T10:36:38;93856.25;;;19.91;69.29
10079;BME280;5078;42.544;22.966;2023-05-27T10:39:06;93850.88;;;19.91;69.64
10079;BME280;5078;42.544;22.966;2023-05-27T10:42:02;93849.25;;;20.02;68.32
10079;BME280;5078;42.544;22.966;2023-05-27T10:44:34;93845.97;;;20.00;69.19
10079;BME280;5078;42.544;22.966;2023-05-27T10:47:03;93848.06;;;19.98;67.66
10079;BME280;5078;42.544;22.966;2023-05-27T10:49:33;93847.00;;;20.11;69.03
10079;BME280;5078;42.544;22.966;2023-05-27T10:52:05;93844.31;;;20.22;69.39
10079;BME280;5078;42.544;22.966;2023-05-27T10:54:36;93837.28;;;20.33;67.26
10079;BME280;5078;42.544;22.966;2023-05-27T10:57:03;93833.72;;;20.56;68.21
10079;BME280;5078;42.544;22.966;2023-05-27T10:59:40;93826.22;;;20.70;67.02
10079;BME280;5078;42.544;22.966;2023-05-27T11:02:08;93831.41;;;20.60;66.85
10079;BME280;5078;42.544;22.966;2023-05-27T11:04:35;93828.09;;;20.70;68.07
10079;BME280;5078;42.544;22.966;2023-05-27T11:07:03;93828.53;;;21.07;66.88
10079;BME280;5078;42.544;22.966;2023-05-27T11:09:30;93828.28;;;20.80;66.51
10079;BME280;5078;42.544;22.966;2023-05-27T11:12:02;93826.50;;;20.85;65.85
10079;BME280;5078;42.544;22.966;2023-05-27T11:14:30;93795.81;;;20.34;67.04
10079;BME280;5078;42.544;22.966;2023-05-27T11:16:58;93832.25;;;20.37;67.30
10079;BME280;5078;42.544;22.966;2023-05-27T11:19:25;93829.41;;;20.32;67.55
10079;BME280;5078;42.544;22.966;2023-05-27T11:21:51;93820.53;;;20.31;66.47
10079;BME280;5078;42.544;22.966;2023-05-27T11:24:19;93810.72;;;20.25;66.41
10079;BME280;5078;42.544;22.966;2023-05-27T11:26:47;93830.81;;;20.34;66.84
10079;BME280;5078;42.544;22.966;2023-05-27T11:29:14;93816.00;;;20.20;67.20
10079;BME280;5078;42.544;22.966;2023-05-27T11:31:46;93819.22;;;20.34;68.14
10079;BME280;5078;42.544;22.966;2023-05-27T11:34:14;93817.19;;;20.00;66.88
10079;BME280;5078;42.544;22.966;2023-05-27T11:36:44;93816.59;;;20.10;67.79
10079;BME280;5078;42.544;22.966;2023-05-27T11:39:11;93796.97;;;20.38;63.15
10079;BME280;5078;42.544;22.966;2023-05-27T11:41:48;93801.78;;;20.60;61.49
10079;BME280;5078;42.544;22.966;2023-05-27T11:44:15;93795.03;;;20.74;60.34
10079;BME280;5078;42.544;22.966;2023-05-27T11:46:43;93791.38;;;20.80;60.99
10079;BME280;5078;42.544;22.966;2023-05-27T11:49:12;93796.00;;;20.97;61.04
10079;BME280;5078;42.544;22.966;2023-05-27T11:51:42;93801.72;;;21.00;60.97
10079;BME280;5078;42.544;22.966;2023-05-27T11:54:19;93806.56;;;20.86;59.88
10079;BME280;5078;42.544;22.966;2023-05-27T11:56:47;93798.09;;;20.66;59.78
10079;BME280;5078;42.544;22.966;2023-05-27T11:59:14;93809.34;;;20.51;59.95
10079;BME280;5078;42.544;22.966;2023-05-27T12:01:41;93804.47;;;20.48;58.88
10079;BME280;5078;42.544;22.966;2023-05-27T12:04:07;93797.09;;;20.43;60.52
10079;BME280;5078;42.544;22.966;2023-05-27T12:06:35;93797.63;;;20.69;62.59
10079;BME280;5078;42.544;22.966;2023-05-27T12:09:04;93793.00;;;20.81;59.84
10079;BME280;5078;42.544;22.966;2023-05-27T12:11:31;93795.91;;;20.63;61.39
10079;BME280;5078;42.544;22.966;2023-05-27T12:13:58;93810.03;;;20.82;61.76
10079;BME280;5078;42.544;22.966;2023-05-27T12:16:25;93790.47;;;21.03;60.77
10079;BME280;5078;42.544;22.966;2023-05-27T12:18:52;93792.84;;;21.00;59.54
10079;BME280;5078;42.544;22.966;2023-05-27T12:21:20;93794.66;;;21.28;59.16
10079;BME280;5078;42.544;22.966;2023-05-27T12:23:47;93786.03;;;21.43;57.23
10079;BME280;5078;42.544;22.966;2023-05-27T12:26:16;93775.72;;;21.57;56.58
10079;BME280;5078;42.544;22.966;2023-05-27T12:28:43;93767.13;;;21.76;55.60
10079;BME280;5078;42.544;22.966;2023-05-27T12:31:10;93771.69;;;22.10;55.41
10079;BME280;5078;42.544;22.966;2023-05-27T12:33:37;93765.25;;;22.16;54.89
10079;BME280;5078;42.544;22.966;2023-05-27T12:36:04;93761.13;;;21.91;52.89
10079;BME280;5078;42.544;22.966;2023-05-27T12:38:31;93757.47;;;21.97;53.03
10079;BME280;5078;42.544;22.966;2023-05-27T12:40:58;93755.50;;;21.93;52.42
10079;BME280;5078;42.544;22.966;2023-05-27T12:43:26;93750.25;;;22.03;52.67
10079;BME280;5078;42.544;22.966;2023-05-27T12:45:53;93758.09;;;22.22;51.22
10079;BME280;5078;42.544;22.966;2023-05-27T12:48:20;93748.41;;;22.26;50.12
10079;BME280;5078;42.544;22.966;2023-05-27T12:50:48;93740.59;;;22.51;49.00
10079;BME280;5078;42.544;22.966;2023-05-27T12:53:15;93745.66;;;22.21;48.66
10079;BME280;5078;42.544;22.966;2023-05-27T12:55:42;93737.56;;;22.04;48.31
10079;BME280;5078;42.544;22.966;2023-05-27T12:58:09;93739.97;;;21.83;48.33